To NAV CANADA Home Page Login to a new session Search on AWWS site Disclaimer Vers la page française équivalente Tips FAQ What's new on the site To the Forecasts and Observations / NOTAM section To "File a Flight Plan" website Publications and other links Update of the User's profile FIC Telephone Numbers My Weather Data Folder Route Weather Data Regional Weather Data Local Weather Data To the Forecasts and Observations / NOTAM section
Request Generated 03/19/2019 at 23:48:01 UTC . Weather information available at that time is displayed.

METAR/TAF

ROUYN-NORANDA/QC    

METAR CYUY 192300Z 20010KT 15SM SCT078 BKN220 01/M11 A3013 RMK AC3CI2 SLP232=
METAR CYUY 192200Z 23012KT 190V250 15SM BKN075 BKN220 02/M11 A3014 RMK AC6CI1 CI TR SLP235=
METAR CYUY 192100Z 23012G18KT 15SM BKN065 01/M11 A3016 RMK SC5 SLP242=

TAF CYUY 192338Z 2000/2012 20012KT P6SM BKN080 TEMPO 2000/2003 6SM
-SHSN BKN040 OVC080
FM200600 21008KT P6SM SCT015 BKN080
RMK NXT FCST BY 200600Z=
Your time UTC time
Weather data provided by Environment Canada and NAV CANADA